createdAt,value
2022-09-13T00:02:16.310Z,4.70
2022-09-13T00:04:43.029Z,4.30
2022-09-13T00:07:09.768Z,4.47
2022-09-13T00:09:37.354Z,4.80
2022-09-13T00:12:04.164Z,5.23
2022-09-13T00:14:30.873Z,4.87
2022-09-13T00:16:57.472Z,4.80
2022-09-13T00:19:24.140Z,4.80
2022-09-13T00:21:50.893Z,5.40
2022-09-13T00:24:17.552Z,5.27
2022-09-13T00:26:44.194Z,5.40
2022-09-13T00:29:10.855Z,5.40
2022-09-13T00:31:37.572Z,5.27
2022-09-13T00:34:04.250Z,5.47
2022-09-13T00:36:30.962Z,5.90
2022-09-13T00:38:58.255Z,5.50
2022-09-13T00:41:25.064Z,5.87
2022-09-13T00:43:55.713Z,6.33
2022-09-13T00:46:45.603Z,6.03
2022-09-13T00:49:18.596Z,6.30
2022-09-13T00:51:50.928Z,6.20
2022-09-13T00:54:21.179Z,6.13
2022-09-13T00:56:55.445Z,6.87
2022-09-13T01:00:08.147Z,6.53
2022-09-13T01:02:35.210Z,6.20
2022-09-13T01:05:03.337Z,5.63
2022-09-13T01:07:30.402Z,6.50
2022-09-13T01:09:57.515Z,6.30
2022-09-13T01:12:36.478Z,6.57
2022-09-13T01:15:06.228Z,5.70
2022-09-13T01:17:33.923Z,6.43
2022-09-13T01:20:02.858Z,5.80
2022-09-13T01:22:51.301Z,5.90
2022-09-13T01:25:45.363Z,6.87
2022-09-13T01:28:26.935Z,6.50
2022-09-13T01:31:14.552Z,6.90
2022-09-13T01:33:59.531Z,6.33
2022-09-13T01:36:38.025Z,6.70
2022-09-13T01:39:08.221Z,6.43
2022-09-13T01:41:43.766Z,6.53
2022-09-13T01:44:29.658Z,6.90
2022-09-13T01:47:14.992Z,7.30
2022-09-13T01:49:51.844Z,7.27
2022-09-13T01:52:37.420Z,7.50
2022-09-13T01:55:18.102Z,9.37
2022-09-13T01:58:02.227Z,9.70
2022-09-13T02:00:36.857Z,9.43
2022-09-13T02:03:29.653Z,10.03
2022-09-13T02:06:08.623Z,9.47
2022-09-13T02:08:42.523Z,9.20
2022-09-13T02:11:15.066Z,9.60
2022-09-13T02:13:48.583Z,9.53
2022-09-13T02:16:27.820Z,9.97
2022-09-13T02:18:59.523Z,9.40
2022-09-13T02:21:34.683Z,9.40
2022-09-13T02:24:03.547Z,8.80
2022-09-13T02:26:34.811Z,10.00
2022-09-13T02:29:07.910Z,10.17
2022-09-13T02:31:39.970Z,10.13
2022-09-13T02:34:14.323Z,9.23
2022-09-13T02:36:43.596Z,9.87
2022-09-13T02:39:16.062Z,10.43
2022-09-13T02:41:46.821Z,9.13
2022-09-13T02:44:22.787Z,11.17
2022-09-13T02:46:55.585Z,10.20
2022-09-13T02:49:57.620Z,10.50
2022-09-13T02:52:34.733Z,10.37
2022-09-13T02:55:40.364Z,10.60
2022-09-13T02:58:23.593Z,10.67
2022-09-13T03:00:53.258Z,11.03
2022-09-13T03:03:20.967Z,10.80
2022-09-13T03:05:47.770Z,11.60
2022-09-13T03:08:17.145Z,12.50
2022-09-13T03:10:59.583Z,12.20
2022-09-13T03:13:48.126Z,12.33
2022-09-13T03:16:30.151Z,13.20
2022-09-13T03:19:21.664Z,12.37
2022-09-13T03:21:48.190Z,12.33
2022-09-13T03:24:26.208Z,13.23
2022-09-13T03:27:17.447Z,12.70
2022-09-13T03:29:56.256Z,13.07
2022-09-13T03:32:48.776Z,14.03
2022-09-13T03:35:21.109Z,13.63
2022-09-13T03:37:58.132Z,14.13
2022-09-13T03:40:48.240Z,16.67
2022-09-13T03:43:35.737Z,16.10
2022-09-13T03:46:10.211Z,17.50
2022-09-13T03:48:40.634Z,18.20
2022-09-13T03:51:08.592Z,18.50
2022-09-13T03:53:41.602Z,17.60
2022-09-13T03:56:20.416Z,17.93
2022-09-13T03:58:48.052Z,17.70
2022-09-13T04:01:20.287Z,18.40
2022-09-13T04:03:47.197Z,17.87
2022-09-13T04:06:13.848Z,17.77
2022-09-13T04:08:42.696Z,18.20
2022-09-13T04:11:09.651Z,18.27
2022-09-13T04:13:39.262Z,19.17
2022-09-13T04:16:09.294Z,18.77
2022-09-13T04:18:36.206Z,18.60
2022-09-13T04:21:06.580Z,18.90
2022-09-13T04:23:33.252Z,17.93
2022-09-13T04:26:04.918Z,18.87
2022-09-13T04:28:31.730Z,18.37
2022-09-13T04:31:09.856Z,19.63
2022-09-13T04:33:38.487Z,18.53
2022-09-13T04:36:05.409Z,18.83
2022-09-13T04:38:32.152Z,19.23
2022-09-13T04:40:59.330Z,18.50
2022-09-13T04:43:26.111Z,18.83
2022-09-13T04:45:54.990Z,17.27
2022-09-13T04:48:21.782Z,17.57
2022-09-13T04:50:49.101Z,17.60
2022-09-13T04:53:15.832Z,18.37
2022-09-13T04:55:42.518Z,18.20
2022-09-13T04:58:09.209Z,17.83
2022-09-13T05:00:35.932Z,17.17
2022-09-13T05:03:02.644Z,17.10
2022-09-13T05:05:30.540Z,16.37
2022-09-13T05:07:57.287Z,15.43
2022-09-13T05:10:24.430Z,15.20
2022-09-13T05:12:52.090Z,15.20
2022-09-13T05:15:18.784Z,14.43
2022-09-13T05:17:46.676Z,13.90
2022-09-13T05:20:13.742Z,14.30
2022-09-13T05:22:40.587Z,13.50
2022-09-13T05:25:08.276Z,13.83
2022-09-13T05:27:35.307Z,12.63
2022-09-13T05:30:02.013Z,12.60
2022-09-13T05:32:30.988Z,12.10
2022-09-13T05:34:57.662Z,13.17
2022-09-13T05:37:24.445Z,12.97
2022-09-13T05:40:10.773Z,11.57
2022-09-13T05:42:38.569Z,11.40
2022-09-13T05:45:06.873Z,11.27
2022-09-13T05:47:41.930Z,10.80
2022-09-13T05:50:11.615Z,10.23
2022-09-13T05:58:59.073Z,9.33
2022-09-13T06:01:39.783Z,8.27
2022-09-13T06:04:09.269Z,8.30
2022-09-13T06:06:37.371Z,8.43
2022-09-13T06:09:20.994Z,8.20
2022-09-13T06:11:48.309Z,8.23
2022-09-13T06:14:16.638Z,8.70
2022-09-13T06:16:48.909Z,7.93
2022-09-13T06:19:15.600Z,7.50
2022-09-13T06:21:42.500Z,8.23
2022-09-13T06:24:09.340Z,8.67
2022-09-13T06:26:39.829Z,8.33
2022-09-13T06:29:11.204Z,5.90
2022-09-13T06:31:39.200Z,6.20
2022-09-13T06:34:15.926Z,4.67
2022-09-13T06:36:42.633Z,4.00
2022-09-13T06:39:09.374Z,3.50
2022-09-13T06:41:37.539Z,3.20
2022-09-13T06:44:09.183Z,2.90
2022-09-13T06:46:38.014Z,2.60
2022-09-13T06:49:06.740Z,2.47
2022-09-13T06:51:34.929Z,1.93
2022-09-13T06:54:04.007Z,3.57
2022-09-13T06:56:34.630Z,2.10
2022-09-13T06:59:08.314Z,3.10
2022-09-13T07:01:41.803Z,2.07
2022-09-13T07:04:19.242Z,1.83
2022-09-13T07:06:49.685Z,2.43
2022-09-13T07:09:20.997Z,1.97
2022-09-13T07:11:49.961Z,2.07
2022-09-13T07:14:20.737Z,1.80
2022-09-13T07:16:49.894Z,1.57
2022-09-13T07:19:20.433Z,2.00
2022-09-13T07:21:54.210Z,2.40
2022-09-13T07:24:25.666Z,1.60
2022-09-13T07:26:54.274Z,1.80
2022-09-13T07:29:24.600Z,1.73
2022-09-13T07:31:54.763Z,1.70
2022-09-13T07:34:24.880Z,1.93
2022-09-13T07:36:53.371Z,1.47
2022-09-13T07:39:24.914Z,1.60
2022-09-13T07:41:54.129Z,1.83
2022-09-13T07:44:21.154Z,2.03
2022-09-13T07:46:48.389Z,2.50
2022-09-13T07:49:18.124Z,2.00
2022-09-13T07:51:45.156Z,1.50
2022-09-13T07:54:15.362Z,1.50
2022-09-13T07:56:43.557Z,1.57
2022-09-13T07:59:15.814Z,1.97
2022-09-13T08:01:44.864Z,1.70
2022-09-13T08:04:14.475Z,1.50
2022-09-13T08:06:43.408Z,1.70
2022-09-13T08:09:11.310Z,1.53
2022-09-13T08:11:40.914Z,1.70
2022-09-13T08:14:10.100Z,1.17
2022-09-13T08:16:37.219Z,1.30
2022-09-13T08:19:07.117Z,1.77
2022-09-13T08:21:37.281Z,1.47
2022-09-13T08:24:06.337Z,1.73
2022-09-13T08:26:35.433Z,2.00
2022-09-13T08:29:05.759Z,1.80
2022-09-13T08:31:32.871Z,1.97
2022-09-13T08:33:59.993Z,1.40
2022-09-13T08:36:28.814Z,1.93
2022-09-13T08:38:59.206Z,1.40
2022-09-13T08:41:45.410Z,2.00
2022-09-13T08:44:31.683Z,1.67
2022-09-13T08:47:22.191Z,1.63
2022-09-13T08:49:56.104Z,1.70
2022-09-13T08:52:53.753Z,1.57
2022-09-13T08:55:26.532Z,1.40
2022-09-13T08:57:59.780Z,1.33
2022-09-13T09:00:41.221Z,1.40
2022-09-13T09:03:18.124Z,1.63
2022-09-13T09:05:50.571Z,1.60
2022-09-13T09:08:23.270Z,1.57
2022-09-13T09:10:53.421Z,1.40
2022-09-13T09:13:38.046Z,1.60
2022-09-13T09:16:28.878Z,1.37
2022-09-13T09:19:00.140Z,1.40
2022-09-13T09:21:28.458Z,1.33
2022-09-13T09:23:56.022Z,1.00
2022-09-13T09:26:30.939Z,1.60
2022-09-13T09:29:10.967Z,1.50
2022-09-13T09:32:11.680Z,1.70
2022-09-13T09:35:05.447Z,1.40
2022-09-13T09:37:38.750Z,1.37
2022-09-13T09:40:14.339Z,1.77
2022-09-13T09:42:47.730Z,1.37
2022-09-13T09:45:35.495Z,1.33
2022-09-13T09:48:09.775Z,1.40
2022-09-13T09:50:41.784Z,1.27
2022-09-13T09:53:17.062Z,1.37
2022-09-13T09:56:00.564Z,1.10
2022-09-13T09:58:42.918Z,1.20
2022-09-13T10:01:33.507Z,1.33
2022-09-13T10:04:11.398Z,1.23
2022-09-13T10:06:40.462Z,1.30
2022-09-13T10:09:14.921Z,0.90
2022-09-13T10:11:48.784Z,1.00
2022-09-13T10:14:35.336Z,1.20
2022-09-13T10:17:28.331Z,1.17
2022-09-13T10:20:01.917Z,1.83
2022-09-13T10:22:31.519Z,1.20
2022-09-13T10:25:24.221Z,1.42
2022-09-13T10:27:58.231Z,1.02
2022-09-13T10:30:39.525Z,1.23
2022-09-13T10:33:20.493Z,1.33
2022-09-13T10:35:55.101Z,1.17
2022-09-13T10:38:32.914Z,1.13
2022-09-13T10:41:03.456Z,1.35
2022-09-13T10:43:32.951Z,1.10
2022-09-13T10:46:03.658Z,1.50
2022-09-13T10:48:44.605Z,1.02
2022-09-13T10:51:31.397Z,1.45
2022-09-13T10:54:09.045Z,1.98
2022-09-13T10:56:36.796Z,1.30
2022-09-13T10:59:29.781Z,1.60
2022-09-13T11:02:58.467Z,1.30
2022-09-13T11:05:37.294Z,1.10
2022-09-13T11:08:11.404Z,1.60
2022-09-13T11:10:57.459Z,1.30
2022-09-13T11:13:24.047Z,2.08
2022-09-13T11:16:05.687Z,1.48
2022-09-13T11:18:32.968Z,1.40
2022-09-13T11:21:32.593Z,1.20
2022-09-13T11:24:30.248Z,0.82
2022-09-13T11:27:02.469Z,1.15
2022-09-13T11:29:51.616Z,1.10
2022-09-13T11:32:43.051Z,1.20
2022-09-13T11:35:22.780Z,1.77
2022-09-13T11:37:56.393Z,1.83
2022-09-13T11:40:28.855Z,1.40
2022-09-13T11:43:24.008Z,1.47
2022-09-13T11:46:05.316Z,1.13
2022-09-13T11:48:56.804Z,1.47
2022-09-13T11:51:43.769Z,1.43
2022-09-13T11:54:34.860Z,1.17
2022-09-13T11:57:11.248Z,1.30
2022-09-13T11:59:45.061Z,1.30
2022-09-13T12:02:19.971Z,1.40
2022-09-13T12:05:21.695Z,1.20
2022-09-13T12:07:55.627Z,1.65
2022-09-13T12:10:57.712Z,1.60
2022-09-13T12:13:31.110Z,1.43
2022-09-13T12:16:06.328Z,1.73
2022-09-13T12:18:41.602Z,1.80
2022-09-13T12:21:19.288Z,1.77
2022-09-13T12:24:06.306Z,1.97
2022-09-13T12:26:59.248Z,1.57
2022-09-13T12:29:49.079Z,1.73
2022-09-13T12:32:17.061Z,1.60
2022-09-13T12:35:06.525Z,1.70
2022-09-13T12:37:45.146Z,2.03
2022-09-13T12:40:39.614Z,1.70
2022-09-13T12:43:34.430Z,2.50
2022-09-13T12:46:19.968Z,1.53
2022-09-13T12:49:05.218Z,1.60
2022-09-13T12:51:50.428Z,1.93
2022-09-13T12:54:38.925Z,1.30
2022-09-13T12:57:08.922Z,1.60
2022-09-13T12:59:44.905Z,1.40
2022-09-13T13:02:33.911Z,1.37
2022-09-13T13:05:18.102Z,1.30
2022-09-13T13:07:53.313Z,0.93
2022-09-13T13:10:34.341Z,1.13
2022-09-13T13:13:31.239Z,1.00
2022-09-13T13:16:02.776Z,1.80
2022-09-13T13:18:31.388Z,1.37
2022-09-13T13:20:58.792Z,1.27
2022-09-13T13:23:30.137Z,1.20
2022-09-13T13:26:18.447Z,1.30
2022-09-13T13:28:48.123Z,1.87
2022-09-13T13:31:24.036Z,1.30
2022-09-13T13:33:59.527Z,1.70
2022-09-13T13:36:40.393Z,1.17
2022-09-13T13:39:25.432Z,1.70
2022-09-13T13:41:57.943Z,2.37
2022-09-13T13:44:28.357Z,1.83
2022-09-13T13:47:07.325Z,1.43
2022-09-13T13:49:35.187Z,1.67
2022-09-13T13:52:08.141Z,1.13
2022-09-13T13:54:49.865Z,1.50
2022-09-13T13:57:35.616Z,1.17
2022-09-13T14:00:16.500Z,1.45
2022-09-13T14:02:53.598Z,1.47
2022-09-13T14:05:33.886Z,1.45
2022-09-13T14:08:19.288Z,1.27
2022-09-13T14:11:02.690Z,1.30
2022-09-13T14:13:44.557Z,1.52
2022-09-13T14:16:49.717Z,2.47
2022-09-13T14:19:29.325Z,1.97
2022-09-13T14:22:04.898Z,1.50
2022-09-13T14:24:39.848Z,1.50
2022-09-13T14:27:09.535Z,1.30
2022-09-13T14:29:37.221Z,1.50
2022-09-13T14:32:07.221Z,1.70
2022-09-13T14:34:37.545Z,1.30
2022-09-13T14:37:18.523Z,1.57
2022-09-13T14:40:00.460Z,1.60
2022-09-13T14:42:37.767Z,1.40
2022-09-13T14:45:05.561Z,1.63
2022-09-13T14:47:41.306Z,1.40
2022-09-13T14:50:16.051Z,1.20
2022-09-13T14:52:58.254Z,1.20
2022-09-13T14:55:33.330Z,1.60
2022-09-13T14:58:16.013Z,1.10
2022-09-13T15:00:51.078Z,1.53
2022-09-13T15:03:20.344Z,1.13
2022-09-13T15:06:02.315Z,1.70
2022-09-13T15:08:35.681Z,0.90
2022-09-13T15:11:06.678Z,1.10
2022-09-13T15:13:34.612Z,1.00
2022-09-13T15:16:18.763Z,1.03
2022-09-13T15:18:45.453Z,1.00
2022-09-13T15:21:18.660Z,1.10
2022-09-13T15:23:51.707Z,0.97
2022-09-13T15:26:25.552Z,0.80
2022-09-13T15:28:57.777Z,1.10
2022-09-13T15:31:31.112Z,0.90
2022-09-13T15:34:16.645Z,1.10
2022-09-13T15:36:45.061Z,0.83
2022-09-13T15:39:23.564Z,0.90
2022-09-13T15:42:00.656Z,1.20
2022-09-13T15:44:29.952Z,0.80
2022-09-13T15:47:02.413Z,1.10
2022-09-13T15:49:30.840Z,0.77
2022-09-13T15:52:00.650Z,0.97
2022-09-13T15:54:34.867Z,1.00
2022-09-13T15:57:02.722Z,0.83
2022-09-13T15:59:29.460Z,1.10
2022-09-13T16:01:56.672Z,1.00
2022-09-13T16:04:23.537Z,1.10
2022-09-13T16:06:50.210Z,1.57
2022-09-13T16:09:21.423Z,1.40
2022-09-13T16:11:49.859Z,1.77
2022-09-13T16:14:18.538Z,1.50
2022-09-13T16:16:46.657Z,1.20
2022-09-13T16:19:21.107Z,1.07
2022-09-13T16:21:49.056Z,1.20
2022-09-13T16:24:16.869Z,1.07
2022-09-13T16:26:43.684Z,1.30
2022-09-13T16:29:11.856Z,1.33
2022-09-13T16:31:38.712Z,1.30
2022-09-13T16:34:05.578Z,1.70
2022-09-13T16:36:34.219Z,1.53
2022-09-13T16:39:01.876Z,1.27
2022-09-13T16:41:29.949Z,1.50
2022-09-13T16:43:57.336Z,1.47
2022-09-13T16:46:24.371Z,1.47
2022-09-13T16:48:56.560Z,1.40
2022-09-13T16:51:24.328Z,1.40
2022-09-13T16:53:52.608Z,1.77
2022-09-13T16:56:23.160Z,1.20
2022-09-13T16:58:52.567Z,1.30
2022-09-13T17:01:31.340Z,1.53
2022-09-13T17:03:58.299Z,1.77
2022-09-13T17:06:26.714Z,1.30
2022-09-13T17:08:56.916Z,1.50
2022-09-13T17:11:26.268Z,1.47
2022-09-13T17:13:53.722Z,1.30
2022-09-13T17:16:26.647Z,1.20
2022-09-13T17:18:53.945Z,1.60
2022-09-13T17:21:21.828Z,1.57
2022-09-13T17:23:49.156Z,1.47
2022-09-13T17:26:16.119Z,1.70
2022-09-13T17:28:42.772Z,1.53
2022-09-13T17:31:09.846Z,1.13
2022-09-13T17:33:37.633Z,2.00
2022-09-13T17:36:09.520Z,1.20
2022-09-13T17:38:37.099Z,1.43
2022-09-13T17:41:25.354Z,1.10
2022-09-13T17:43:52.460Z,1.53
2022-09-13T17:46:23.183Z,1.40
2022-09-13T17:48:54.859Z,1.20
2022-09-13T17:51:24.669Z,1.60
2022-09-13T17:53:56.454Z,1.43
2022-09-13T17:56:37.294Z,1.20
2022-09-13T17:59:15.677Z,1.20
2022-09-13T18:01:45.093Z,1.40
2022-09-13T18:04:13.805Z,1.77
2022-09-13T18:06:43.315Z,1.63
2022-09-13T18:09:14.800Z,1.90
2022-09-13T18:11:46.887Z,1.70
2022-09-13T18:14:24.280Z,1.50
2022-09-13T18:20:13.654Z,1.87
2022-09-13T18:25:30.034Z,1.80
2022-09-13T18:28:02.569Z,1.70
2022-09-13T18:30:33.145Z,2.00
2022-09-13T18:33:00.860Z,1.60
2022-09-13T18:35:27.968Z,1.60
2022-09-13T18:37:56.530Z,1.67
2022-09-13T18:40:23.228Z,1.70
2022-09-13T18:42:51.900Z,2.17
2022-09-13T18:45:27.441Z,1.50
2022-09-13T18:47:54.150Z,2.03
2022-09-13T18:50:20.814Z,1.30
2022-09-13T18:52:47.481Z,1.60
2022-09-13T18:55:14.230Z,1.70
2022-09-13T18:57:40.900Z,1.43
2022-09-13T19:00:14.954Z,1.97
2022-09-13T19:03:02.052Z,1.37
2022-09-13T19:05:30.945Z,1.90
2022-09-13T19:07:57.684Z,1.70
2022-09-13T19:10:24.824Z,1.67
2022-09-13T19:12:51.624Z,2.10
2022-09-13T19:15:18.337Z,1.90
2022-09-13T19:17:45.010Z,1.83
2022-09-13T19:20:11.809Z,1.70
2022-09-13T19:22:38.585Z,2.00
2022-09-13T19:25:05.690Z,2.23
2022-09-13T19:27:32.385Z,2.10
2022-09-13T19:29:59.375Z,1.80
2022-09-13T19:32:26.080Z,1.97
2022-09-13T19:34:52.707Z,1.70
2022-09-13T19:37:19.534Z,2.07
2022-09-13T19:39:47.364Z,1.77
2022-09-13T19:42:15.250Z,2.13
2022-09-13T19:44:41.970Z,1.70
2022-09-13T19:48:02.304Z,1.93
2022-09-13T19:49:59.166Z,2.00
2022-09-13T19:52:27.129Z,1.80
2022-09-13T19:54:58.534Z,2.00
2022-09-13T19:57:25.773Z,2.50
2022-09-13T19:59:58.205Z,2.40
2022-09-13T20:02:27.538Z,2.30
2022-09-13T20:05:00.857Z,2.17
2022-09-13T20:07:27.608Z,1.80
2022-09-13T20:09:55.149Z,2.00
2022-09-13T20:12:23.815Z,1.53
2022-09-13T20:14:50.535Z,1.90
2022-09-13T20:17:21.018Z,2.10
2022-09-13T20:19:50.151Z,1.90
2022-09-13T20:22:17.145Z,1.83
2022-09-13T20:24:43.901Z,1.80
2022-09-13T20:27:10.772Z,2.70
2022-09-13T20:29:38.188Z,2.03
2022-09-13T20:32:05.080Z,2.40
2022-09-13T20:34:31.907Z,2.40
2022-09-13T20:36:58.584Z,2.20
2022-09-13T20:39:25.221Z,2.77
2022-09-13T20:41:52.119Z,2.67
2022-09-13T20:44:18.832Z,2.47
2022-09-13T20:46:45.528Z,2.17
2022-09-13T20:49:12.321Z,2.47
2022-09-13T20:51:39.112Z,2.67
2022-09-13T20:54:06.557Z,2.23
2022-09-13T20:56:34.605Z,2.00
2022-09-13T20:59:01.861Z,2.17
2022-09-13T21:01:30.068Z,2.47
2022-09-13T21:03:57.480Z,2.33
2022-09-13T21:06:27.129Z,2.57
2022-09-13T21:08:56.474Z,3.00
2022-09-13T21:11:29.096Z,1.93
2022-09-13T21:14:01.522Z,1.80
2022-09-13T21:16:30.714Z,3.67
2022-09-13T21:18:57.470Z,2.20
2022-09-13T21:21:30.646Z,2.27
2022-09-13T21:24:00.447Z,2.47
2022-09-13T21:26:30.127Z,3.10
2022-09-13T21:28:58.717Z,2.30
2022-09-13T21:31:28.295Z,2.40
2022-09-13T21:33:58.275Z,2.07
2022-09-13T21:36:26.858Z,1.97
2022-09-13T21:38:55.828Z,2.00
2022-09-13T21:41:24.408Z,2.03
2022-09-13T21:43:51.594Z,2.17
2022-09-13T21:46:24.265Z,2.10
2022-09-13T21:48:54.480Z,2.20
2022-09-13T21:51:26.768Z,2.00
2022-09-13T21:53:59.947Z,1.70
2022-09-13T21:56:32.186Z,2.57
2022-09-13T21:59:02.326Z,2.33
2022-09-13T22:01:32.339Z,1.90
2022-09-13T22:03:59.794Z,2.90
2022-09-13T22:06:30.276Z,3.00
2022-09-13T22:09:01.158Z,2.13
2022-09-13T22:11:32.007Z,2.60
2022-09-13T22:14:02.423Z,2.03
2022-09-13T22:16:31.598Z,2.17
2022-09-13T22:19:08.057Z,2.70
2022-09-13T22:21:39.964Z,2.17
2022-09-13T22:24:08.523Z,2.93
2022-09-13T22:26:39.497Z,2.40
2022-09-13T22:29:07.555Z,2.80
2022-09-13T22:31:37.220Z,2.57
2022-09-13T22:34:05.061Z,2.20
2022-09-13T22:36:32.587Z,2.57
2022-09-13T22:39:02.962Z,2.53
2022-09-13T22:41:31.878Z,2.17
2022-09-13T22:43:59.898Z,2.10
2022-09-13T22:46:39.434Z,2.20
2022-09-13T22:49:07.193Z,2.20
2022-09-13T22:51:34.204Z,1.70
2022-09-13T22:54:06.246Z,1.90
2022-09-13T22:56:35.821Z,2.47
2022-09-13T22:59:07.440Z,2.20
2022-09-13T23:01:34.981Z,2.87
2022-09-13T23:04:02.162Z,2.10
2022-09-13T23:06:29.601Z,2.30
2022-09-13T23:09:00.017Z,2.60
2022-09-13T23:11:27.952Z,2.50
2022-09-13T23:13:58.219Z,2.67
2022-09-13T23:16:27.591Z,2.40
2022-09-13T23:18:55.836Z,2.07
2022-09-13T23:21:26.834Z,2.30
2022-09-13T23:23:54.283Z,2.07
2022-09-13T23:26:24.832Z,2.67
2022-09-13T23:28:56.803Z,2.47
2022-09-13T23:31:26.627Z,2.27
2022-09-13T23:33:56.234Z,2.20
2022-09-13T23:36:26.534Z,2.33
2022-09-13T23:38:55.681Z,2.80
2022-09-13T23:41:23.166Z,2.50
2022-09-13T23:43:49.941Z,3.10
2022-09-13T23:46:17.330Z,2.10
2022-09-13T23:48:44.897Z,2.50
2022-09-13T23:51:14.440Z,2.53
2022-09-13T23:53:41.600Z,2.20
2022-09-13T23:56:09.698Z,2.23
2022-09-13T23:58:38.051Z,2.20
